PWSweather.com
Personal Weather Stations
Station Observations
SD92115WX
El Cerrito Stoneybluff, San Diego, CA 92115

El Cerrito StoneybluffSan Diego, CA 92115

Lat: 32.754096, Lon: -117.066705

Elevation: 420

Station Type: Davis Vantage Vue

http://stoneybluff.com

High Low Average
Temperature 62.8°F17.1°C 48.4°F9.1°C 54.7°F12.6°C
Dew Point 55.0°F12.8°C 46.8°F8.2°C 51.3°F10.7°C
Winds 12.5 mph 20.1 kmh Calm Calm 2.0 mph S3.2 kmh S
Wind Gusts 20.1 mph32.3 kmh -- 5.0 mph8.0 kmh
Humidity 96% 73% 89%
Pressure 29.94 in1013.9 mb 29.85 in1010.8 mb -
Precipitation 0.45 in11.4 mm - -
Hour Temp Dew Point Humidity Winds Wind Gusts Pressure Precip Precip Rate Daily Precip Total
12:02 AM 53.1°F11.7°C 50.5°F10.3°C 91% Calm Calm -- 29.89 in1012.2 mb 0.00 in0.0 mm 0.00 in0.0 mm 0.00 in0.0 mm
12:07 AM 53.2°F11.8°C 50.7°F10.4°C 91% Calm Calm -- 29.89 in1012.2 mb 0.00 in0.0 mm 0.00 in0.0 mm 0.00 in0.0 mm
12:12 AM 53.1°F11.7°C 50.5°F10.3°C 91% Calm Calm -- 29.89 in1012.2 mb 0.00 in0.0 mm 0.00 in0.0 mm 0.00 in0.0 mm
12:17 AM 52.7°F11.5°C 49.8°F9.9°C 90% Calm Calm -- 29.89 in1012.2 mb 0.00 in0.0 mm 0.00 in0.0 mm 0.00 in0.0 mm
12:22 AM 52.5°F11.4°C 50.0°F10.0°C 91% Calm Calm -- 29.90 in1012.5 mb 0.00 in0.0 mm 0.00 in0.0 mm 0.00 in0.0 mm
12:27 AM 52.3°F11.3°C 49.8°F9.9°C 91% Calm Calm -- 29.90 in1012.5 mb 0.00 in0.0 mm 0.00 in0.0 mm 0.00 in0.0 mm
12:32 AM 52.5°F11.4°C 50.2°F10.1°C 92% Calm Calm -- 29.89 in1012.2 mb 0.00 in0.0 mm 0.00 in0.0 mm 0.00 in0.0 mm
12:37 AM 52.5°F11.4°C 50.0°F10.0°C 91% Calm Calm -- 29.89 in1012.2 mb 0.00 in0.0 mm 0.00 in0.0 mm 0.00 in0.0 mm
12:42 AM 52.3°F11.3°C 49.8°F9.9°C 91% Calm Calm -- 29.89 in1012.2 mb 0.00 in0.0 mm 0.00 in0.0 mm 0.00 in0.0 mm
12:47 AM 52.3°F11.3°C 50.0°F10.0°C 92% Calm Calm -- 29.89 in1012.2 mb 0.00 in0.0 mm 0.00 in0.0 mm 0.00 in0.0 mm
12:52 AM 52.3°F11.3°C 50.0°F10.0°C 92% Calm Calm -- 29.89 in1012.2 mb 0.00 in0.0 mm 0.00 in0.0 mm 0.00 in0.0 mm
12:57 AM 52.2°F11.2°C 49.6°F9.8°C 91% Calm Calm -- 29.89 in1012.2 mb 0.00 in0.0 mm 0.00 in0.0 mm 0.00 in0.0 mm
01:02 AM 52.0°F11.1°C 49.6°F9.8°C 92% Calm Calm -- 29.89 in1012.2 mb 0.00 in0.0 mm 0.00 in0.0 mm 0.00 in0.0 mm
01:07 AM 52.0°F11.1°C 49.6°F9.8°C 92% Calm Calm -- 29.89 in1012.2 mb 0.00 in0.0 mm 0.00 in0.0 mm 0.00 in0.0 mm
01:12 AM 51.6°F10.9°C 49.5°F9.7°C 92% Calm Calm -- 29.89 in1012.2 mb 0.00 in0.0 mm 0.00 in0.0 mm 0.00 in0.0 mm
01:17 AM 51.6°F10.9°C 49.5°F9.7°C 92% Calm Calm -- 29.89 in1012.2 mb 0.00 in0.0 mm 0.00 in0.0 mm 0.00 in0.0 mm
01:22 AM 51.6°F10.9°C 49.5°F9.7°C 92% Calm Calm -- 29.90 in1012.5 mb 0.00 in0.0 mm 0.00 in0.0 mm 0.00 in0.0 mm
01:27 AM 51.8°F11.0°C 49.6°F9.8°C 92% Calm Calm -- 29.89 in1012.2 mb 0.00 in0.0 mm 0.00 in0.0 mm 0.00 in0.0 mm
01:32 AM 52.0°F11.1°C 49.6°F9.8°C 92% Calm Calm -- 29.89 in1012.2 mb 0.00 in0.0 mm 0.00 in0.0 mm 0.00 in0.0 mm
01:37 AM 51.8°F11.0°C 49.6°F9.8°C 92% Calm Calm -- 29.90 in1012.5 mb 0.00 in0.0 mm 0.00 in0.0 mm 0.00 in0.0 mm
01:42 AM 51.6°F10.9°C 49.5°F9.7°C 92% Calm Calm -- 29.89 in1012.2 mb 0.00 in0.0 mm 0.00 in0.0 mm 0.00 in0.0 mm
01:47 AM 51.4°F10.8°C 49.3°F9.6°C 92% Calm Calm -- 29.89 in1012.2 mb 0.00 in0.0 mm 0.00 in0.0 mm 0.00 in0.0 mm
01:52 AM 51.4°F10.8°C 49.5°F9.7°C 93% Calm Calm -- 29.89 in1012.2 mb 0.00 in0.0 mm 0.00 in0.0 mm 0.00 in0.0 mm
01:57 AM 51.4°F10.8°C 49.3°F9.6°C 92% Calm Calm -- 29.89 in1012.2 mb 0.00 in0.0 mm 0.00 in0.0 mm 0.00 in0.0 mm
02:02 AM 51.3°F10.7°C 49.1°F9.5°C 92% Calm Calm -- 29.90 in1012.5 mb 0.00 in0.0 mm 0.00 in0.0 mm 0.00 in0.0 mm
02:07 AM 51.3°F10.7°C 49.3°F9.6°C 93% Calm Calm -- 29.89 in1012.2 mb 0.00 in0.0 mm 0.00 in0.0 mm 0.00 in0.0 mm
02:12 AM 51.3°F10.7°C 49.3°F9.6°C 93% Calm Calm -- 29.89 in1012.2 mb 0.00 in0.0 mm 0.00 in0.0 mm 0.00 in0.0 mm
02:17 AM 51.4°F10.8°C 49.5°F9.7°C 93% Calm Calm -- 29.89 in1012.2 mb 0.00 in0.0 mm 0.00 in0.0 mm 0.00 in0.0 mm
02:22 AM 51.6°F10.9°C 49.6°F9.8°C 93% Calm Calm -- 29.89 in1012.2 mb 0.00 in0.0 mm 0.00 in0.0 mm 0.00 in0.0 mm
02:27 AM 51.6°F10.9°C 49.6°F9.8°C 93% Calm Calm -- 29.89 in1012.2 mb 0.00 in0.0 mm 0.00 in0.0 mm 0.00 in0.0 mm
02:32 AM 51.6°F10.9°C 49.6°F9.8°C 93% Calm Calm -- 29.89 in1012.2 mb 0.00 in0.0 mm 0.00 in0.0 mm 0.00 in0.0 mm
02:37 AM 51.4°F10.8°C 49.5°F9.7°C 93% Calm Calm -- 29.89 in1012.2 mb 0.00 in0.0 mm 0.00 in0.0 mm 0.00 in0.0 mm
02:42 AM 51.4°F10.8°C 49.5°F9.7°C 93% Calm Calm -- 29.89 in1012.2 mb 0.00 in0.0 mm 0.00 in0.0 mm 0.00 in0.0 mm
02:47 AM 51.4°F10.8°C 49.5°F9.7°C 93% Calm Calm -- 29.89 in1012.2 mb 0.00 in0.0 mm 0.00 in0.0 mm 0.00 in0.0 mm
02:52 AM 51.4°F10.8°C 49.5°F9.7°C 93% Calm Calm -- 29.89 in1012.2 mb 0.00 in0.0 mm 0.00 in0.0 mm 0.00 in0.0 mm
02:57 AM 51.3°F10.7°C 49.3°F9.6°C 93% Calm Calm -- 29.90 in1012.5 mb 0.00 in0.0 mm 0.00 in0.0 mm 0.00 in0.0 mm
03:02 AM 51.3°F10.7°C 49.3°F9.6°C 93% Calm Calm -- 29.90 in1012.5 mb 0.00 in0.0 mm 0.00 in0.0 mm 0.00 in0.0 mm
03:07 AM 51.3°F10.7°C 49.3°F9.6°C 93% Calm Calm -- 29.90 in1012.5 mb 0.00 in0.0 mm 0.00 in0.0 mm 0.00 in0.0 mm
03:12 AM 51.3°F10.7°C 49.3°F9.6°C 93% Calm Calm -- 29.90 in1012.5 mb 0.00 in0.0 mm 0.00 in0.0 mm 0.00 in0.0 mm
03:17 AM 51.4°F10.8°C 49.5°F9.7°C 93% Calm Calm -- 29.90 in1012.5 mb 0.00 in0.0 mm 0.00 in0.0 mm 0.00 in0.0 mm
03:22 AM 51.4°F10.8°C 49.5°F9.7°C 93% Calm Calm -- 29.90 in1012.5 mb 0.00 in0.0 mm 0.00 in0.0 mm 0.00 in0.0 mm
03:27 AM 51.3°F10.7°C 49.3°F9.6°C 93% Calm Calm -- 29.90 in1012.5 mb 0.00 in0.0 mm 0.00 in0.0 mm 0.00 in0.0 mm
03:32 AM 51.1°F10.6°C 49.1°F9.5°C 93% Calm Calm -- 29.90 in1012.5 mb 0.00 in0.0 mm 0.00 in0.0 mm 0.00 in0.0 mm
03:37 AM 50.9°F10.5°C 48.9°F9.4°C 93% Calm Calm -- 29.90 in1012.5 mb 0.00 in0.0 mm 0.00 in0.0 mm 0.00 in0.0 mm
03:42 AM 50.7°F10.4°C 48.7°F9.3°C 93% Calm Calm -- 29.89 in1012.2 mb 0.00 in0.0 mm 0.00 in0.0 mm 0.00 in0.0 mm
03:47 AM 50.5°F10.3°C 48.6°F9.2°C 93% Calm Calm -- 29.89 in1012.2 mb 0.00 in0.0 mm 0.00 in0.0 mm 0.00 in0.0 mm
03:52 AM 50.5°F10.3°C 48.6°F9.2°C 93% Calm Calm -- 29.89 in1012.2 mb 0.00 in0.0 mm 0.00 in0.0 mm 0.00 in0.0 mm
03:57 AM 50.4°F10.2°C 48.4°F9.1°C 93% Calm Calm -- 29.89 in1012.2 mb 0.00 in0.0 mm 0.00 in0.0 mm 0.00 in0.0 mm
04:02 AM 50.4°F10.2°C 48.4°F9.1°C 93% Calm Calm -- 29.89 in1012.2 mb 0.00 in0.0 mm 0.00 in0.0 mm 0.00 in0.0 mm
04:07 AM 50.4°F10.2°C 48.7°F9.3°C 94% Calm Calm -- 29.89 in1012.2 mb 0.00 in0.0 mm 0.00 in0.0 mm 0.00 in0.0 mm
04:12 AM 50.2°F10.1°C 48.6°F9.2°C 94% Calm Calm -- 29.90 in1012.5 mb 0.00 in0.0 mm 0.00 in0.0 mm 0.00 in0.0 mm
04:17 AM 50.2°F10.1°C 48.6°F9.2°C 94% Calm Calm -- 29.90 in1012.5 mb 0.00 in0.0 mm 0.00 in0.0 mm 0.00 in0.0 mm
04:22 AM 50.4°F10.2°C 48.7°F9.3°C 94% Calm Calm -- 29.90 in1012.5 mb 0.00 in0.0 mm 0.00 in0.0 mm 0.00 in0.0 mm
04:27 AM 50.4°F10.2°C 48.7°F9.3°C 94% Calm Calm -- 29.90 in1012.5 mb 0.00 in0.0 mm 0.00 in0.0 mm 0.00 in0.0 mm
04:32 AM 50.2°F10.1°C 48.2°F9.0°C 93% Calm Calm -- 29.90 in1012.5 mb 0.00 in0.0 mm 0.00 in0.0 mm 0.00 in0.0 mm
04:37 AM 49.6°F9.8°C 47.7°F8.7°C 93% Calm Calm -- 29.90 in1012.5 mb 0.00 in0.0 mm 0.00 in0.0 mm 0.00 in0.0 mm
04:42 AM 49.6°F9.8°C 48.0°F8.9°C 94% Calm Calm -- 29.89 in1012.2 mb 0.00 in0.0 mm 0.00 in0.0 mm 0.00 in0.0 mm
04:47 AM 49.6°F9.8°C 48.0°F8.9°C 94% Calm Calm -- 29.89 in1012.2 mb 0.00 in0.0 mm 0.00 in0.0 mm 0.00 in0.0 mm
04:52 AM 49.5°F9.7°C 47.8°F8.8°C 94% Calm Calm -- 29.90 in1012.5 mb 0.00 in0.0 mm 0.00 in0.0 mm 0.00 in0.0 mm
04:57 AM 49.5°F9.7°C 47.8°F8.8°C 94% Calm Calm -- 29.89 in1012.2 mb 0.00 in0.0 mm 0.00 in0.0 mm 0.00 in0.0 mm
05:02 AM 49.5°F9.7°C 47.8°F8.8°C 94% Calm Calm -- 29.90 in1012.5 mb 0.00 in0.0 mm 0.00 in0.0 mm 0.00 in0.0 mm
05:07 AM 49.5°F9.7°C 47.8°F8.8°C 94% Calm Calm -- 29.90 in1012.5 mb 0.00 in0.0 mm 0.00 in0.0 mm 0.00 in0.0 mm
05:12 AM 49.5°F9.7°C 47.8°F8.8°C 94% Calm Calm -- 29.90 in1012.5 mb 0.00 in0.0 mm 0.00 in0.0 mm 0.00 in0.0 mm
05:17 AM 49.5°F9.7°C 47.8°F8.8°C 94% Calm Calm -- 29.90 in1012.5 mb 0.00 in0.0 mm 0.00 in0.0 mm 0.00 in0.0 mm
05:22 AM 49.3°F9.6°C 47.7°F8.7°C 94% Calm Calm -- 29.90 in1012.5 mb 0.00 in0.0 mm 0.00 in0.0 mm 0.00 in0.0 mm
05:27 AM 49.3°F9.6°C 47.7°F8.7°C 94% Calm Calm -- 29.90 in1012.5 mb 0.00 in0.0 mm 0.00 in0.0 mm 0.00 in0.0 mm
05:32 AM 49.1°F9.5°C 47.5°F8.6°C 94% Calm Calm -- 29.90 in1012.5 mb 0.00 in0.0 mm 0.00 in0.0 mm 0.00 in0.0 mm
05:37 AM 49.3°F9.6°C 47.7°F8.7°C 94% Calm Calm -- 29.90 in1012.5 mb 0.00 in0.0 mm 0.00 in0.0 mm 0.00 in0.0 mm
05:42 AM 49.5°F9.7°C 48.0°F8.9°C 95% Calm Calm -- 29.90 in1012.5 mb 0.00 in0.0 mm 0.00 in0.0 mm 0.00 in0.0 mm
05:47 AM 49.3°F9.6°C 47.7°F8.7°C 94% Calm Calm -- 29.90 in1012.5 mb 0.00 in0.0 mm 0.00 in0.0 mm 0.00 in0.0 mm
05:52 AM 48.7°F9.3°C 47.1°F8.4°C 94% Calm Calm -- 29.90 in1012.5 mb 0.00 in0.0 mm 0.00 in0.0 mm 0.00 in0.0 mm
05:57 AM 48.6°F9.2°C 46.9°F8.3°C 94% Calm Calm -- 29.90 in1012.5 mb 0.00 in0.0 mm 0.00 in0.0 mm 0.00 in0.0 mm
06:02 AM 48.6°F9.2°C 46.9°F8.3°C 94% Calm Calm -- 29.89 in1012.2 mb 0.00 in0.0 mm 0.00 in0.0 mm 0.00 in0.0 mm
06:07 AM 48.4°F9.1°C 46.8°F8.2°C 94% Calm Calm -- 29.90 in1012.5 mb 0.00 in0.0 mm 0.00 in0.0 mm 0.00 in0.0 mm
06:12 AM 48.4°F9.1°C 46.8°F8.2°C 94% Calm Calm -- 29.90 in1012.5 mb 0.00 in0.0 mm 0.00 in0.0 mm 0.00 in0.0 mm
06:17 AM 48.6°F9.2°C 47.1°F8.4°C 95% Calm Calm -- 29.90 in1012.5 mb 0.00 in0.0 mm 0.00 in0.0 mm 0.00 in0.0 mm
06:22 AM 48.9°F9.4°C 47.5°F8.6°C 95% Calm Calm -- 29.90 in1012.5 mb 0.00 in0.0 mm 0.00 in0.0 mm 0.00 in0.0 mm
06:27 AM 48.9°F9.4°C 47.5°F8.6°C 95% Calm Calm -- 29.90 in1012.5 mb 0.00 in0.0 mm 0.00 in0.0 mm 0.00 in0.0 mm
06:32 AM 48.9°F9.4°C 47.5°F8.6°C 95% Calm Calm -- 29.91 in1012.9 mb 0.00 in0.0 mm 0.00 in0.0 mm 0.00 in0.0 mm
06:37 AM 48.9°F9.4°C 47.3°F8.5°C 94% Calm Calm -- 29.91 in1012.9 mb 0.00 in0.0 mm 0.00 in0.0 mm 0.00 in0.0 mm
06:42 AM 48.9°F9.4°C 47.5°F8.6°C 95% Calm Calm -- 29.91 in1012.9 mb 0.00 in0.0 mm 0.00 in0.0 mm 0.00 in0.0 mm
06:47 AM 49.3°F9.6°C 47.8°F8.8°C 95% Calm Calm -- 29.91 in1012.9 mb 0.00 in0.0 mm 0.00 in0.0 mm 0.00 in0.0 mm
06:52 AM 49.5°F9.7°C 48.0°F8.9°C 95% Calm Calm -- 29.91 in1012.9 mb 0.00 in0.0 mm 0.00 in0.0 mm 0.00 in0.0 mm
06:57 AM 49.3°F9.6°C 47.8°F8.8°C 95% Calm Calm -- 29.91 in1012.9 mb 0.00 in0.0 mm 0.00 in0.0 mm 0.00 in0.0 mm
07:02 AM 49.6°F9.8°C 48.2°F9.0°C 95% Calm Calm -- 29.91 in1012.9 mb 0.00 in0.0 mm 0.00 in0.0 mm 0.00 in0.0 mm
07:07 AM 49.6°F9.8°C 48.2°F9.0°C 95% Calm Calm -- 29.91 in1012.9 mb 0.00 in0.0 mm 0.00 in0.0 mm 0.00 in0.0 mm
07:12 AM 49.6°F9.8°C 48.2°F9.0°C 95% Calm Calm -- 29.91 in1012.9 mb 0.00 in0.0 mm 0.00 in0.0 mm 0.00 in0.0 mm
07:17 AM 49.6°F9.8°C 48.2°F9.0°C 95% Calm Calm -- 29.92 in1013.2 mb 0.00 in0.0 mm 0.00 in0.0 mm 0.00 in0.0 mm
07:22 AM 49.8°F9.9°C 48.4°F9.1°C 95% Calm Calm -- 29.92 in1013.2 mb 0.00 in0.0 mm 0.00 in0.0 mm 0.00 in0.0 mm
07:27 AM 49.8°F9.9°C 48.4°F9.1°C 95% Calm Calm -- 29.91 in1012.9 mb 0.00 in0.0 mm 0.00 in0.0 mm 0.00 in0.0 mm
07:32 AM 50.0°F10.0°C 48.6°F9.2°C 95% Calm Calm -- 29.92 in1013.2 mb 0.00 in0.0 mm 0.00 in0.0 mm 0.00 in0.0 mm
07:37 AM 50.2°F10.1°C 48.7°F9.3°C 95% Calm Calm -- 29.92 in1013.2 mb 0.00 in0.0 mm 0.00 in0.0 mm 0.00 in0.0 mm
07:42 AM 50.4°F10.2°C 48.9°F9.4°C 95% Calm Calm -- 29.92 in1013.2 mb 0.00 in0.0 mm 0.00 in0.0 mm 0.00 in0.0 mm
07:47 AM 50.5°F10.3°C 49.1°F9.5°C 95% Calm Calm -- 29.92 in1013.2 mb 0.00 in0.0 mm 0.00 in0.0 mm 0.00 in0.0 mm
07:52 AM 50.7°F10.4°C 49.3°F9.6°C 95% Calm Calm -- 29.92 in1013.2 mb 0.00 in0.0 mm 0.00 in0.0 mm 0.00 in0.0 mm
07:57 AM 50.9°F10.5°C 49.5°F9.7°C 95% Calm Calm -- 29.93 in1013.5 mb 0.00 in0.0 mm 0.00 in0.0 mm 0.00 in0.0 mm
08:02 AM 50.9°F10.5°C 49.5°F9.7°C 95% Calm Calm -- 29.93 in1013.5 mb 0.00 in0.0 mm 0.00 in0.0 mm 0.00 in0.0 mm
08:07 AM 50.9°F10.5°C 49.5°F9.7°C 95% Calm Calm -- 29.93 in1013.5 mb 0.00 in0.0 mm 0.00 in0.0 mm 0.00 in0.0 mm
08:12 AM 51.1°F10.6°C 49.6°F9.8°C 95% Calm Calm -- 29.93 in1013.5 mb 0.00 in0.0 mm 0.00 in0.0 mm 0.00 in0.0 mm
08:17 AM 51.4°F10.8°C 50.0°F10.0°C 95% Calm Calm -- 29.93 in1013.5 mb 0.00 in0.0 mm 0.00 in0.0 mm 0.00 in0.0 mm
08:22 AM 52.2°F11.2°C 51.1°F10.6°C 96% Calm Calm -- 29.93 in1013.5 mb 0.00 in0.0 mm 0.00 in0.0 mm 0.00 in0.0 mm
08:27 AM 52.9°F11.6°C 51.8°F11.0°C 96% Calm Calm -- 29.93 in1013.5 mb 0.00 in0.0 mm 0.00 in0.0 mm 0.00 in0.0 mm
08:32 AM 53.6°F12.0°C 52.5°F11.4°C 96% Calm Calm 1.1 mph1.8 kmh 29.93 in1013.5 mb 0.00 in0.0 mm 0.00 in0.0 mm 0.00 in0.0 mm
08:37 AM 54.1°F12.3°C 52.7°F11.5°C 95% Calm Calm -- 29.93 in1013.5 mb 0.00 in0.0 mm 0.00 in0.0 mm 0.00 in0.0 mm
08:42 AM 54.7°F12.6°C 53.2°F11.8°C 95% Calm Calm 1.1 mph1.8 kmh 29.94 in1013.9 mb 0.00 in0.0 mm 0.00 in0.0 mm 0.00 in0.0 mm
08:47 AM 55.2°F12.9°C 53.6°F12.0°C 94% Calm Calm 1.1 mph1.8 kmh 29.94 in1013.9 mb 0.00 in0.0 mm 0.00 in0.0 mm 0.00 in0.0 mm
08:52 AM 55.8°F13.2°C 54.1°F12.3°C 94% 0.2 mph E0.3 kmh E 3.1 mph5.0 kmh 29.94 in1013.9 mb 0.00 in0.0 mm 0.00 in0.0 mm 0.00 in0.0 mm
08:57 AM 56.3°F13.5°C 54.3°F12.4°C 93% 2.0 mph SSE3.2 kmh SSE 5.4 mph8.7 kmh 29.93 in1013.5 mb 0.00 in0.0 mm 0.00 in0.0 mm 0.00 in0.0 mm
09:02 AM 56.7°F13.7°C 54.3°F12.4°C 92% 3.4 mph SE5.5 kmh SE 6.3 mph10.1 kmh 29.94 in1013.9 mb 0.00 in0.0 mm 0.00 in0.0 mm 0.00 in0.0 mm
09:07 AM 57.4°F14.1°C 55.0°F12.8°C 92% 1.8 mph S2.9 kmh S 6.3 mph10.1 kmh 29.93 in1013.5 mb 0.00 in0.0 mm 0.00 in0.0 mm 0.00 in0.0 mm
09:12 AM 57.7°F14.3°C 54.9°F12.7°C 90% 2.5 mph S4.0 kmh S 8.5 mph13.7 kmh 29.93 in1013.5 mb 0.00 in0.0 mm 0.00 in0.0 mm 0.00 in0.0 mm
09:17 AM 58.3°F14.6°C 55.0°F12.8°C 89% 3.1 mph SSW5.0 kmh SSW 7.4 mph11.9 kmh 29.94 in1013.9 mb 0.00 in0.0 mm 0.00 in0.0 mm 0.00 in0.0 mm
09:22 AM 58.5°F14.7°C 54.7°F12.6°C 87% 3.6 mph S5.8 kmh S 6.3 mph10.1 kmh 29.94 in1013.9 mb 0.00 in0.0 mm 0.00 in0.0 mm 0.00 in0.0 mm
09:27 AM 59.0°F15.0°C 54.9°F12.7°C 86% 2.7 mph SW4.3 kmh SW 5.4 mph8.7 kmh 29.94 in1013.9 mb 0.00 in0.0 mm 0.00 in0.0 mm 0.00 in0.0 mm
09:32 AM 59.4°F15.2°C 54.5°F12.5°C 84% 4.0 mph SSE6.4 kmh SSE 8.5 mph13.7 kmh 29.93 in1013.5 mb 0.00 in0.0 mm 0.00 in0.0 mm 0.00 in0.0 mm
09:37 AM 59.7°F15.4°C 54.9°F12.7°C 84% 4.0 mph SSW6.4 kmh SSW 8.5 mph13.7 kmh 29.93 in1013.5 mb 0.00 in0.0 mm 0.00 in0.0 mm 0.00 in0.0 mm
09:42 AM 60.1°F15.6°C 54.5°F12.5°C 82% 3.1 mph SSW5.0 kmh SSW 8.5 mph13.7 kmh 29.93 in1013.5 mb 0.00 in0.0 mm 0.00 in0.0 mm 0.00 in0.0 mm
09:47 AM 60.6°F15.9°C 55.0°F12.8°C 82% 2.7 mph ESE4.3 kmh ESE 6.3 mph10.1 kmh 29.93 in1013.5 mb 0.00 in0.0 mm 0.00 in0.0 mm 0.00 in0.0 mm
09:52 AM 61.0°F16.1°C 55.0°F12.8°C 81% 3.4 mph SSE5.5 kmh SSE 7.4 mph11.9 kmh 29.93 in1013.5 mb 0.00 in0.0 mm 0.00 in0.0 mm 0.00 in0.0 mm
09:57 AM 61.2°F16.2°C 54.9°F12.7°C 80% 4.3 mph SE6.9 kmh SE 10.5 mph16.9 kmh 29.93 in1013.5 mb 0.00 in0.0 mm 0.00 in0.0 mm 0.00 in0.0 mm
10:02 AM 61.3°F16.3°C 54.9°F12.7°C 79% 3.6 mph SW5.8 kmh SW 10.5 mph16.9 kmh 29.93 in1013.5 mb 0.00 in0.0 mm 0.00 in0.0 mm 0.00 in0.0 mm
10:07 AM 61.3°F16.3°C 54.1°F12.3°C 77% 4.5 mph S7.2 kmh S 10.5 mph16.9 kmh 29.93 in1013.5 mb 0.00 in0.0 mm 0.00 in0.0 mm 0.00 in0.0 mm
10:12 AM 60.8°F16.0°C 53.6°F12.0°C 77% 6.3 mph SSW10.1 kmh SSW 11.6 mph18.7 kmh 29.93 in1013.5 mb 0.00 in0.0 mm 0.00 in0.0 mm 0.00 in0.0 mm
10:17 AM 60.6°F15.9°C 53.8°F12.1°C 78% 5.4 mph SSE8.7 kmh SSE 12.8 mph20.6 kmh 29.93 in1013.5 mb 0.00 in0.0 mm 0.00 in0.0 mm 0.00 in0.0 mm
10:22 AM 60.4°F15.8°C 53.6°F12.0°C 78% 5.6 mph SW9.0 kmh SW 10.5 mph16.9 kmh 29.93 in1013.5 mb 0.00 in0.0 mm 0.00 in0.0 mm 0.00 in0.0 mm
10:27 AM 60.3°F15.7°C 53.4°F11.9°C 78% 5.4 mph S8.7 kmh S 11.6 mph18.7 kmh 29.93 in1013.5 mb 0.00 in0.0 mm 0.00 in0.0 mm 0.00 in0.0 mm
10:32 AM 60.1°F15.6°C 53.6°F12.0°C 79% 6.3 mph SSW10.1 kmh SSW 11.6 mph18.7 kmh 29.93 in1013.5 mb 0.00 in0.0 mm 0.00 in0.0 mm 0.00 in0.0 mm
10:37 AM 60.1°F15.6°C 53.6°F12.0°C 79% 7.6 mph SW12.2 kmh SW 10.5 mph16.9 kmh 29.93 in1013.5 mb 0.00 in0.0 mm 0.00 in0.0 mm 0.00 in0.0 mm
10:42 AM 59.9°F15.5°C 53.4°F11.9°C 79% 4.9 mph SW7.9 kmh SW 13.9 mph22.4 kmh 29.93 in1013.5 mb 0.00 in0.0 mm 0.00 in0.0 mm 0.00 in0.0 mm
10:47 AM 59.9°F15.5°C 53.4°F11.9°C 79% 5.8 mph SSE9.3 kmh SSE 9.6 mph15.4 kmh 29.93 in1013.5 mb 0.00 in0.0 mm 0.00 in0.0 mm 0.00 in0.0 mm
10:52 AM 59.7°F15.4°C 53.6°F12.0°C 80% 5.1 mph SSW8.2 kmh SSW 9.6 mph15.4 kmh 29.93 in1013.5 mb 0.00 in0.0 mm 0.00 in0.0 mm 0.00 in0.0 mm
10:57 AM 59.7°F15.4°C 53.6°F12.0°C 80% 4.7 mph SW7.6 kmh SW 9.6 mph15.4 kmh 29.93 in1013.5 mb 0.00 in0.0 mm 0.00 in0.0 mm 0.00 in0.0 mm
11:02 AM 59.7°F15.4°C 54.0°F12.2°C 81% 3.4 mph SSE5.5 kmh SSE 6.3 mph10.1 kmh 29.93 in1013.5 mb 0.00 in0.0 mm 0.00 in0.0 mm 0.00 in0.0 mm
11:07 AM 59.7°F15.4°C 54.0°F12.2°C 81% 3.8 mph SE6.1 kmh SE 7.4 mph11.9 kmh 29.92 in1013.2 mb 0.00 in0.0 mm 0.00 in0.0 mm 0.00 in0.0 mm
11:12 AM 59.9°F15.5°C 54.1°F12.3°C 81% 2.7 mph SW4.3 kmh SW 9.6 mph15.4 kmh 29.92 in1013.2 mb 0.00 in0.0 mm 0.00 in0.0 mm 0.00 in0.0 mm
11:17 AM 60.1°F15.6°C 54.3°F12.4°C 81% 4.5 mph SW7.2 kmh SW 9.6 mph15.4 kmh 29.92 in1013.2 mb 0.00 in0.0 mm 0.00 in0.0 mm 0.00 in0.0 mm
11:22 AM 59.7°F15.4°C 54.0°F12.2°C 81% 6.0 mph SW9.7 kmh SW 9.6 mph15.4 kmh 29.92 in1013.2 mb 0.00 in0.0 mm 0.00 in0.0 mm 0.00 in0.0 mm
11:27 AM 59.5°F15.3°C 53.8°F12.1°C 81% 6.5 mph SW10.5 kmh SW 11.6 mph18.7 kmh 29.92 in1013.2 mb 0.00 in0.0 mm 0.00 in0.0 mm 0.00 in0.0 mm
11:32 AM 59.5°F15.3°C 54.0°F12.2°C 82% 5.8 mph SE9.3 kmh SE 9.6 mph15.4 kmh 29.91 in1012.9 mb 0.00 in0.0 mm 0.00 in0.0 mm 0.00 in0.0 mm
11:37 AM 59.7°F15.4°C 54.1°F12.3°C 82% 3.6 mph SW5.8 kmh SW 8.5 mph13.7 kmh 29.91 in1012.9 mb 0.00 in0.0 mm 0.00 in0.0 mm 0.00 in0.0 mm
11:42 AM 60.1°F15.6°C 54.3°F12.4°C 81% 4.9 mph SSW7.9 kmh SSW 12.8 mph20.6 kmh 29.91 in1012.9 mb 0.00 in0.0 mm 0.00 in0.0 mm 0.00 in0.0 mm
11:47 AM 60.3°F15.7°C 54.3°F12.4°C 81% 4.9 mph SSE7.9 kmh SSE 12.8 mph20.6 kmh 29.90 in1012.5 mb 0.00 in0.0 mm 0.00 in0.0 mm 0.00 in0.0 mm
11:52 AM 61.0°F16.1°C 54.7°F12.6°C 80% 6.7 mph SSW10.8 kmh SSW 11.6 mph18.7 kmh 29.90 in1012.5 mb 0.00 in0.0 mm 0.00 in0.0 mm 0.00 in0.0 mm
11:57 AM 61.2°F16.2°C 54.7°F12.6°C 79% 9.4 mph WSW15.1 kmh WSW 14.8 mph23.8 kmh 29.90 in1012.5 mb 0.00 in0.0 mm 0.00 in0.0 mm 0.00 in0.0 mm
12:02 PM 61.3°F16.3°C 54.5°F12.5°C 78% 7.2 mph SW11.6 kmh SW 12.8 mph20.6 kmh 29.89 in1012.2 mb 0.00 in0.0 mm 0.00 in0.0 mm 0.00 in0.0 mm
12:07 PM 61.5°F16.4°C 54.3°F12.4°C 77% 5.8 mph SW9.3 kmh SW 12.8 mph20.6 kmh 29.89 in1012.2 mb 0.00 in0.0 mm 0.00 in0.0 mm 0.00 in0.0 mm
12:12 PM 61.7°F16.5°C 54.1°F12.3°C 76% 9.2 mph SW14.8 kmh SW 12.8 mph20.6 kmh 29.89 in1012.2 mb 0.00 in0.0 mm 0.00 in0.0 mm 0.00 in0.0 mm
12:17 PM 62.1°F16.7°C 53.6°F12.0°C 74% 8.3 mph S13.4 kmh S 15.9 mph25.6 kmh 29.88 in1011.9 mb 0.00 in0.0 mm 0.00 in0.0 mm 0.00 in0.0 mm
12:22 PM 62.4°F16.9°C 54.0°F12.2°C 74% 9.6 mph SE15.4 kmh SE 13.9 mph22.4 kmh 29.88 in1011.9 mb 0.00 in0.0 mm 0.00 in0.0 mm 0.00 in0.0 mm
12:27 PM 62.8°F17.1°C 54.3°F12.4°C 74% 9.6 mph SSW15.4 kmh SSW 17.0 mph27.4 kmh 29.88 in1011.9 mb 0.00 in0.0 mm 0.00 in0.0 mm 0.00 in0.0 mm
12:32 PM 62.6°F17.0°C 53.8°F12.1°C 73% 11.6 mph SW18.7 kmh SW 15.9 mph25.6 kmh 29.88 in1011.9 mb 0.00 in0.0 mm 0.00 in0.0 mm 0.00 in0.0 mm
12:37 PM 62.4°F16.9°C 53.6°F12.0°C 73% 11.4 mph SSW18.3 kmh SSW 15.9 mph25.6 kmh 29.87 in1011.5 mb 0.00 in0.0 mm 0.00 in0.0 mm 0.00 in0.0 mm
12:42 PM 62.2°F16.8°C 53.4°F11.9°C 73% 9.6 mph S15.4 kmh S 14.8 mph23.8 kmh 29.87 in1011.5 mb 0.00 in0.0 mm 0.00 in0.0 mm 0.00 in0.0 mm
12:47 PM 62.2°F16.8°C 53.8°F12.1°C 74% 11.4 mph SSW18.3 kmh SSW 17.0 mph27.4 kmh 29.87 in1011.5 mb 0.00 in0.0 mm 0.00 in0.0 mm 0.00 in0.0 mm
12:52 PM 62.4°F16.9°C 54.0°F12.2°C 74% 7.6 mph SE12.2 kmh SE 14.8 mph23.8 kmh 29.86 in1011.2 mb 0.00 in0.0 mm 0.00 in0.0 mm 0.00 in0.0 mm
12:57 PM 62.4°F16.9°C 53.6°F12.0°C 73% 12.5 mph SW20.1 kmh SW 19.0 mph30.6 kmh 29.86 in1011.2 mb 0.00 in0.0 mm 0.00 in0.0 mm 0.00 in0.0 mm
01:02 PM 62.6°F17.0°C 53.8°F12.1°C 73% 9.6 mph SW15.4 kmh SW 14.8 mph23.8 kmh 29.86 in1011.2 mb 0.00 in0.0 mm 0.00 in0.0 mm 0.00 in0.0 mm
01:07 PM 62.4°F16.9°C 53.6°F12.0°C 73% 10.5 mph SSW16.9 kmh SSW 20.1 mph32.3 kmh 29.86 in1011.2 mb 0.00 in0.0 mm 0.00 in0.0 mm 0.00 in0.0 mm
01:12 PM 62.1°F16.7°C 53.6°F12.0°C 74% 10.5 mph SW16.9 kmh SW 14.8 mph23.8 kmh 29.86 in1011.2 mb 0.00 in0.0 mm 0.00 in0.0 mm 0.00 in0.0 mm
01:17 PM 61.5°F16.4°C 53.6°F12.0°C 75% 9.2 mph WSW14.8 kmh WSW 14.8 mph23.8 kmh 29.86 in1011.2 mb 0.00 in0.0 mm 0.00 in0.0 mm 0.00 in0.0 mm
01:22 PM 61.2°F16.2°C 54.0°F12.2°C 77% 7.6 mph SE12.2 kmh SE 19.0 mph30.6 kmh 29.86 in1011.2 mb 0.00 in0.0 mm 0.00 in0.0 mm 0.00 in0.0 mm
01:27 PM 61.0°F16.1°C 54.1°F12.3°C 78% 8.3 mph SW13.4 kmh SW 14.8 mph23.8 kmh 29.86 in1011.2 mb 0.00 in0.0 mm 0.00 in0.0 mm 0.00 in0.0 mm
01:32 PM 60.8°F16.0°C 54.0°F12.2°C 78% 7.4 mph SSW11.9 kmh SSW 13.9 mph22.4 kmh 29.85 in1010.8 mb 0.00 in0.0 mm 0.00 in0.0 mm 0.00 in0.0 mm
01:37 PM 60.6°F15.9°C 53.8°F12.1°C 78% 11.6 mph S18.7 kmh S 20.1 mph32.3 kmh 29.86 in1011.2 mb 0.00 in0.0 mm 0.00 in0.0 mm 0.00 in0.0 mm
01:42 PM 60.4°F15.8°C 54.0°F12.2°C 79% 9.6 mph SSW15.4 kmh SSW 17.0 mph27.4 kmh 29.88 in1011.9 mb 0.00 in0.0 mm 0.00 in0.0 mm 0.00 in0.0 mm
01:47 PM 60.3°F15.7°C 53.8°F12.1°C 79% 9.8 mph SW15.8 kmh SW 15.9 mph25.6 kmh 29.88 in1011.9 mb 0.00 in0.0 mm 0.00 in0.0 mm 0.00 in0.0 mm
01:52 PM 59.9°F15.5°C 53.8°F12.1°C 80% 8.7 mph SW14.0 kmh SW 15.9 mph25.6 kmh 29.88 in1011.9 mb 0.00 in0.0 mm 0.00 in0.0 mm 0.00 in0.0 mm
01:57 PM 59.7°F15.4°C 54.0°F12.2°C 81% 7.4 mph S11.9 kmh S 18.1 mph29.1 kmh 29.88 in1011.9 mb 0.00 in0.0 mm 0.00 in0.0 mm 0.00 in0.0 mm
02:02 PM 59.4°F15.2°C 54.1°F12.3°C 83% 5.4 mph WSW8.7 kmh WSW 12.8 mph20.6 kmh 29.87 in1011.5 mb 0.00 in0.0 mm 0.00 in0.0 mm 0.00 in0.0 mm
02:07 PM 58.8°F14.9°C 54.3°F12.4°C 85% 7.2 mph SSW11.6 kmh SSW 12.8 mph20.6 kmh 29.87 in1011.5 mb 0.01 in0.3 mm 0.12 in3.0 mm 0.02 in0.5 mm
02:12 PM 58.5°F14.7°C 54.3°F12.4°C 86% 7.6 mph WSW12.2 kmh WSW 11.6 mph18.7 kmh 29.87 in1011.5 mb 0.02 in0.5 mm 0.12 in3.0 mm 0.02 in0.5 mm
02:17 PM 58.3°F14.6°C 54.7°F12.6°C 88% 4.9 mph SSW7.9 kmh SSW 11.6 mph18.7 kmh 29.86 in1011.2 mb 0.03 in0.8 mm 0.12 in3.0 mm 0.03 in0.8 mm
02:22 PM 58.1°F14.5°C 54.9°F12.7°C 89% 3.6 mph SSW5.8 kmh SSW 8.5 mph13.7 kmh 29.86 in1011.2 mb 0.05 in1.3 mm 0.24 in6.1 mm 0.05 in1.3 mm
02:27 PM 57.7°F14.3°C 54.5°F12.5°C 89% 5.8 mph SW9.3 kmh SW 9.6 mph15.4 kmh 29.87 in1011.5 mb 0.05 in1.3 mm 0.00 in0.0 mm 0.05 in1.3 mm
02:32 PM 57.6°F14.2°C 54.7°F12.6°C 90% 3.8 mph SW6.1 kmh SW 8.5 mph13.7 kmh 29.86 in1011.2 mb 0.07 in1.8 mm 0.24 in6.1 mm 0.07 in1.8 mm
02:37 PM 57.4°F14.1°C 54.5°F12.5°C 90% 4.7 mph SSW7.6 kmh SSW 7.4 mph11.9 kmh 29.87 in1011.5 mb 0.10 in2.5 mm 0.36 in9.1 mm 0.10 in2.5 mm
02:42 PM 57.0°F13.9°C 54.5°F12.5°C 91% 3.4 mph WSW5.5 kmh WSW 6.3 mph10.1 kmh 29.86 in1011.2 mb 0.13 in3.3 mm 0.36 in9.1 mm 0.13 in3.3 mm
02:47 PM 57.0°F13.9°C 54.5°F12.5°C 91% 3.8 mph S6.1 kmh S 7.4 mph11.9 kmh 29.86 in1011.2 mb 0.14 in3.6 mm 0.12 in3.0 mm 0.15 in3.8 mm
02:52 PM 56.8°F13.8°C 54.3°F12.4°C 91% 2.2 mph W3.5 kmh W 4.3 mph6.9 kmh 29.86 in1011.2 mb 0.16 in4.1 mm 0.24 in6.1 mm 0.17 in4.3 mm
02:57 PM 56.8°F13.8°C 54.5°F12.5°C 92% 5.8 mph SW9.3 kmh SW 8.5 mph13.7 kmh 29.87 in1011.5 mb 0.19 in4.8 mm 0.36 in9.1 mm 0.19 in4.8 mm
03:02 PM 56.8°F13.8°C 54.5°F12.5°C 92% 1.8 mph SSE2.9 kmh SSE 6.3 mph10.1 kmh 29.87 in1011.5 mb 0.24 in6.1 mm 0.05 in1.3 mm 0.25 in6.4 mm
03:07 PM 56.8°F13.8°C 54.9°F12.7°C 93% Calm Calm 3.1 mph5.0 kmh 29.85 in1010.8 mb 0.28 in7.1 mm 0.48 in12.2 mm 0.29 in7.4 mm
03:12 PM 56.8°F13.8°C 54.9°F12.7°C 93% Calm Calm 1.1 mph1.8 kmh 29.85 in1010.8 mb 0.29 in7.4 mm 0.12 in3.0 mm 0.32 in8.1 mm
03:17 PM 56.7°F13.7°C 54.7°F12.6°C 93% 0.9 mph SW1.4 kmh SW 3.1 mph5.0 kmh 29.86 in1011.2 mb 0.30 in7.6 mm 0.12 in3.0 mm 0.33 in8.4 mm
03:22 PM 56.7°F13.7°C 54.7°F12.6°C 93% 4.0 mph NW6.4 kmh NW 7.4 mph11.9 kmh 29.85 in1010.8 mb 0.29 in7.4 mm 0.00 in0.0 mm 0.34 in8.6 mm
03:27 PM 56.3°F13.5°C 54.3°F12.4°C 93% 2.0 mph WNW3.2 kmh WNW 6.3 mph10.1 kmh 29.85 in1010.8 mb 0.30 in7.6 mm 0.12 in3.0 mm 0.35 in8.9 mm
03:32 PM 55.9°F13.3°C 54.0°F12.2°C 93% 2.7 mph WSW4.3 kmh WSW 7.4 mph11.9 kmh 29.85 in1010.8 mb 0.29 in7.4 mm 0.00 in0.0 mm 0.36 in9.1 mm
03:37 PM 55.9°F13.3°C 54.0°F12.2°C 93% 0.7 mph WSW1.1 kmh WSW 5.4 mph8.7 kmh 29.85 in1010.8 mb 0.26 in6.6 mm 0.00 in0.0 mm 0.37 in9.4 mm
03:42 PM 55.6°F13.1°C 53.6°F12.0°C 93% 0.9 mph SW1.4 kmh SW 4.3 mph6.9 kmh 29.85 in1010.8 mb 0.24 in6.1 mm 0.00 in0.0 mm 0.38 in9.7 mm
03:47 PM 55.4°F13.0°C 53.4°F11.9°C 93% 3.6 mph SSW5.8 kmh SSW 5.4 mph8.7 kmh 29.85 in1010.8 mb 0.25 in6.4 mm 0.12 in3.0 mm 0.39 in9.9 mm
03:52 PM 55.2°F12.9°C 53.2°F11.8°C 93% 3.1 mph SW5.0 kmh SW 7.4 mph11.9 kmh 29.86 in1011.2 mb 0.24 in6.1 mm 0.00 in0.0 mm 0.41 in10.4 mm
03:57 PM 55.2°F12.9°C 53.6°F12.0°C 94% 2.5 mph WSW4.0 kmh WSW 9.6 mph15.4 kmh 29.86 in1011.2 mb 0.25 in6.4 mm 0.12 in3.0 mm 0.45 in11.4 mm
04:02 PM 55.0°F12.8°C 53.1°F11.7°C 93% 4.7 mph WSW7.6 kmh WSW 7.4 mph11.9 kmh 29.87 in1011.5 mb 0.23 in5.8 mm 0.00 in0.0 mm 0.47 in11.9 mm
04:07 PM 54.9°F12.7°C 53.2°F11.8°C 94% 0.4 mph W0.6 kmh W 6.3 mph10.1 kmh 29.86 in1011.2 mb 0.24 in6.1 mm 0.12 in3.0 mm 0.54 in13.7 mm
04:12 PM 54.9°F12.7°C 53.2°F11.8°C 94% 0.4 mph WNW0.6 kmh WNW 2.0 mph3.2 kmh 29.86 in1011.2 mb 0.24 in6.1 mm 0.00 in0.0 mm 0.55 in14.0 mm
04:17 PM 54.9°F12.7°C 53.2°F11.8°C 94% 2.0 mph WSW3.2 kmh WSW 4.3 mph6.9 kmh 29.86 in1011.2 mb 0.22 in5.6 mm 0.00 in0.0 mm 0.55 in14.0 mm
04:22 PM 54.9°F12.7°C 53.2°F11.8°C 94% 2.7 mph W4.3 kmh W 6.3 mph10.1 kmh 29.86 in1011.2 mb 0.23 in5.8 mm 0.12 in3.0 mm 0.58 in14.7 mm
04:27 PM 54.9°F12.7°C 53.2°F11.8°C 94% 2.5 mph SW4.0 kmh SW 7.4 mph11.9 kmh 29.86 in1011.2 mb 0.27 in6.9 mm 0.48 in12.2 mm 0.62 in15.7 mm
04:32 PM 54.9°F12.7°C 53.2°F11.8°C 94% 3.1 mph SW5.0 kmh SW 7.4 mph11.9 kmh 29.87 in1011.5 mb 0.27 in6.9 mm 0.00 in0.0 mm 0.63 in16.0 mm
04:37 PM 54.9°F12.7°C 53.2°F11.8°C 94% Calm Calm 3.1 mph5.0 kmh 29.86 in1011.2 mb 0.29 in7.4 mm 0.24 in6.1 mm 0.65 in16.5 mm
04:42 PM 54.9°F12.7°C 53.4°F11.9°C 95% 1.3 mph W2.1 kmh W 3.1 mph5.0 kmh 29.86 in1011.2 mb 0.29 in7.4 mm 0.00 in0.0 mm 0.66 in16.8 mm
04:47 PM 54.9°F12.7°C 53.4°F11.9°C 95% 0.2 mph SSW0.3 kmh SSW 3.1 mph5.0 kmh 29.86 in1011.2 mb 0.28 in7.1 mm 0.00 in0.0 mm 0.67 in17.0 mm
04:52 PM 54.9°F12.7°C 53.4°F11.9°C 95% Calm Calm -- 29.86 in1011.2 mb 0.27 in6.9 mm 0.00 in0.0 mm 0.67 in17.0 mm
04:57 PM 54.9°F12.7°C 53.4°F11.9°C 95% 0.2 mph WSW0.3 kmh WSW 1.1 mph1.8 kmh 29.87 in1011.5 mb 0.23 in5.8 mm 0.00 in0.0 mm 0.67 in17.0 mm
05:02 PM 54.9°F12.7°C 53.4°F11.9°C 95% 2.7 mph WSW4.3 kmh WSW 6.3 mph10.1 kmh 29.87 in1011.5 mb 0.20 in5.1 mm 0.00 in0.0 mm 0.67 in17.0 mm
05:07 PM 54.9°F12.7°C 53.4°F11.9°C 95% 2.7 mph S4.3 kmh S 8.5 mph13.7 kmh 29.87 in1011.5 mb 0.14 in3.6 mm 0.00 in0.0 mm 0.67 in17.0 mm
05:12 PM 54.9°F12.7°C 53.4°F11.9°C 95% 2.5 mph SW4.0 kmh SW 5.4 mph8.7 kmh 29.87 in1011.5 mb 0.12 in3.0 mm 0.00 in0.0 mm 0.67 in17.0 mm
05:17 PM 54.9°F12.7°C 53.4°F11.9°C 95% Calm Calm 3.1 mph5.0 kmh 29.87 in1011.5 mb 0.13 in3.3 mm 0.12 in3.0 mm 0.68 in17.3 mm
05:22 PM 54.9°F12.7°C 53.4°F11.9°C 95% Calm Calm 1.1 mph1.8 kmh 29.87 in1011.5 mb 0.12 in3.0 mm 0.00 in0.0 mm 0.69 in17.5 mm
05:27 PM 54.9°F12.7°C 53.4°F11.9°C 95% Calm Calm 2.0 mph3.2 kmh 29.88 in1011.9 mb 0.08 in2.0 mm 0.00 in0.0 mm 0.70 in17.8 mm
05:32 PM 54.9°F12.7°C 53.4°F11.9°C 95% Calm Calm -- 29.87 in1011.5 mb 0.07 in1.8 mm 0.00 in0.0 mm 0.71 in18.0 mm
05:37 PM 54.9°F12.7°C 53.4°F11.9°C 95% Calm Calm -- 29.87 in1011.5 mb 0.06 in1.5 mm 0.00 in0.0 mm 0.71 in18.0 mm
05:42 PM 54.9°F12.7°C 53.4°F11.9°C 95% Calm Calm -- 29.86 in1011.2 mb 0.06 in1.5 mm 0.00 in0.0 mm 0.72 in18.3 mm
05:47 PM 54.9°F12.7°C 53.4°F11.9°C 95% Calm Calm -- 29.86 in1011.2 mb 0.05 in1.3 mm 0.00 in0.0 mm 0.72 in18.3 mm
05:52 PM 54.9°F12.7°C 53.4°F11.9°C 95% Calm Calm -- 29.85 in1010.8 mb 0.05 in1.3 mm 0.00 in0.0 mm 0.73 in18.5 mm
05:57 PM 54.9°F12.7°C 53.4°F11.9°C 95% Calm Calm 1.1 mph1.8 kmh 29.85 in1010.8 mb 0.06 in1.5 mm 0.12 in3.0 mm 0.73 in18.5 mm
06:02 PM 54.9°F12.7°C 53.4°F11.9°C 95% Calm Calm 1.1 mph1.8 kmh 29.85 in1010.8 mb 0.06 in1.5 mm 0.00 in0.0 mm 0.73 in18.5 mm
06:07 PM 54.9°F12.7°C 53.4°F11.9°C 95% Calm Calm 1.1 mph1.8 kmh 29.86 in1011.2 mb 0.06 in1.5 mm 0.00 in0.0 mm 0.73 in18.5 mm
06:12 PM 54.9°F12.7°C 53.4°F11.9°C 95% 0.9 mph ESE1.4 kmh ESE 3.1 mph5.0 kmh 29.87 in1011.5 mb 0.06 in1.5 mm 0.00 in0.0 mm 0.73 in18.5 mm
06:17 PM 54.9°F12.7°C 53.4°F11.9°C 95% 1.3 mph NNW2.1 kmh NNW 6.3 mph10.1 kmh 29.85 in1010.8 mb 0.06 in1.5 mm 0.00 in0.0 mm 0.74 in18.8 mm
06:22 PM 54.9°F12.7°C 53.4°F11.9°C 95% 1.3 mph WSW2.1 kmh WSW 4.3 mph6.9 kmh 29.84 in1010.5 mb 0.05 in1.3 mm 0.00 in0.0 mm 0.74 in18.8 mm
06:27 PM 54.7°F12.6°C 53.2°F11.8°C 95% 2.0 mph E3.2 kmh E 5.4 mph8.7 kmh 29.84 in1010.5 mb 0.04 in1.0 mm 0.00 in0.0 mm 0.74 in18.8 mm
06:32 PM 54.7°F12.6°C 53.2°F11.8°C 95% 1.3 mph NNW2.1 kmh NNW 5.4 mph8.7 kmh 29.85 in1010.8 mb 0.05 in1.3 mm 0.12 in3.0 mm 0.75 in19.1 mm
06:37 PM 54.5°F12.5°C 53.1°F11.7°C 95% 0.2 mph NW0.3 kmh NW 4.3 mph6.9 kmh 29.85 in1010.8 mb 0.04 in1.0 mm 0.00 in0.0 mm 0.75 in19.1 mm
06:42 PM 54.5°F12.5°C 53.1°F11.7°C 95% 0.2 mph E0.3 kmh E 4.3 mph6.9 kmh 29.85 in1010.8 mb 0.03 in0.8 mm 0.00 in0.0 mm 0.75 in19.1 mm
06:47 PM 54.5°F12.5°C 53.1°F11.7°C 95% 0.4 mph SW0.6 kmh SW 3.1 mph5.0 kmh 29.85 in1010.8 mb 0.03 in0.8 mm 0.00 in0.0 mm 0.75 in19.1 mm
06:52 PM 54.5°F12.5°C 53.1°F11.7°C 95% 0.4 mph NW0.6 kmh NW 3.1 mph5.0 kmh 29.86 in1011.2 mb 0.03 in0.8 mm 0.00 in0.0 mm 0.75 in19.1 mm
06:57 PM 54.3°F12.4°C 52.9°F11.6°C 95% Calm Calm 2.0 mph3.2 kmh 29.86 in1011.2 mb 0.02 in0.5 mm 0.00 in0.0 mm 0.75 in19.1 mm
07:02 PM 54.3°F12.4°C 52.9°F11.6°C 95% 0.4 mph SW0.6 kmh SW 3.1 mph5.0 kmh 29.87 in1011.5 mb 0.02 in0.5 mm 0.00 in0.0 mm 0.75 in19.1 mm
07:07 PM 54.3°F12.4°C 52.9°F11.6°C 95% 3.1 mph WSW5.0 kmh WSW 6.3 mph10.1 kmh 29.88 in1011.9 mb 0.02 in0.5 mm 0.00 in0.0 mm 0.75 in19.1 mm
07:12 PM 54.3°F12.4°C 52.9°F11.6°C 95% 1.6 mph NW2.6 kmh NW 5.4 mph8.7 kmh 29.87 in1011.5 mb 0.02 in0.5 mm 0.00 in0.0 mm 0.75 in19.1 mm
07:17 PM 54.3°F12.4°C 52.9°F11.6°C 95% 0.2 mph NNW0.3 kmh NNW 3.1 mph5.0 kmh 29.87 in1011.5 mb 0.01 in0.3 mm 0.00 in0.0 mm 0.75 in19.1 mm
07:22 PM 54.3°F12.4°C 52.9°F11.6°C 95% 0.9 mph SW1.4 kmh SW 2.0 mph3.2 kmh 29.88 in1011.9 mb 0.01 in0.3 mm 0.00 in0.0 mm 0.75 in19.1 mm
07:27 PM 54.3°F12.4°C 52.9°F11.6°C 95% 1.6 mph SW2.6 kmh SW 5.4 mph8.7 kmh 29.88 in1011.9 mb 0.01 in0.3 mm 0.00 in0.0 mm 0.75 in19.1 mm
07:32 PM 54.3°F12.4°C 52.9°F11.6°C 95% 1.1 mph WSW1.8 kmh WSW 3.1 mph5.0 kmh 29.88 in1011.9 mb 0.00 in0.0 mm 0.00 in0.0 mm 0.75 in19.1 mm
07:37 PM 54.3°F12.4°C 52.9°F11.6°C 95% 1.3 mph W2.1 kmh W 3.1 mph5.0 kmh 29.88 in1011.9 mb 0.00 in0.0 mm 0.00 in0.0 mm 0.75 in19.1 mm
07:42 PM 54.3°F12.4°C 52.9°F11.6°C 95% 0.7 mph WSW1.1 kmh WSW 3.1 mph5.0 kmh 29.88 in1011.9 mb 0.00 in0.0 mm 0.00 in0.0 mm 0.75 in19.1 mm
07:47 PM 54.3°F12.4°C 52.9°F11.6°C 95% 0.7 mph NW1.1 kmh NW 2.0 mph3.2 kmh 29.88 in1011.9 mb 0.00 in0.0 mm 0.00 in0.0 mm 0.75 in19.1 mm
07:52 PM 54.5°F12.5°C 53.1°F11.7°C 95% 1.1 mph WNW1.8 kmh WNW 3.1 mph5.0 kmh 29.88 in1011.9 mb 0.00 in0.0 mm 0.00 in0.0 mm 0.75 in19.1 mm
07:57 PM 54.5°F12.5°C 53.1°F11.7°C 95% 0.7 mph NW1.1 kmh NW 2.0 mph3.2 kmh 29.88 in1011.9 mb 0.00 in0.0 mm 0.00 in0.0 mm 0.75 in19.1 mm
08:02 PM 54.3°F12.4°C 52.9°F11.6°C 95% Calm Calm 2.0 mph3.2 kmh 29.88 in1011.9 mb 0.00 in0.0 mm 0.00 in0.0 mm 0.75 in19.1 mm
08:07 PM 54.3°F12.4°C 52.9°F11.6°C 95% 0.7 mph WNW1.1 kmh WNW 2.0 mph3.2 kmh 29.88 in1011.9 mb 0.00 in0.0 mm 0.00 in0.0 mm 0.75 in19.1 mm
08:12 PM 54.3°F12.4°C 52.9°F11.6°C 95% 0.2 mph WNW0.3 kmh WNW 2.0 mph3.2 kmh 29.88 in1011.9 mb 0.00 in0.0 mm 0.00 in0.0 mm 0.75 in19.1 mm
08:17 PM 54.3°F12.4°C 52.9°F11.6°C 95% Calm Calm 1.1 mph1.8 kmh 29.88 in1011.9 mb 0.00 in0.0 mm 0.00 in0.0 mm 0.75 in19.1 mm
08:22 PM 54.3°F12.4°C 52.9°F11.6°C 95% Calm Calm -- 29.89 in1012.2 mb 0.00 in0.0 mm 0.00 in0.0 mm 0.75 in19.1 mm
08:27 PM 54.1°F12.3°C 52.7°F11.5°C 95% Calm Calm -- 29.89 in1012.2 mb 0.00 in0.0 mm 0.00 in0.0 mm 0.75 in19.1 mm
08:32 PM 54.1°F12.3°C 52.7°F11.5°C 95% Calm Calm -- 29.89 in1012.2 mb 0.00 in0.0 mm 0.00 in0.0 mm 0.75 in19.1 mm
08:37 PM 54.1°F12.3°C 52.7°F11.5°C 95% Calm Calm -- 29.89 in1012.2 mb 0.00 in0.0 mm 0.00 in0.0 mm 0.75 in19.1 mm
08:42 PM 54.0°F12.2°C 52.5°F11.4°C 95% Calm Calm -- 29.89 in1012.2 mb 0.00 in0.0 mm 0.00 in0.0 mm 0.75 in19.1 mm
08:47 PM 54.0°F12.2°C 52.5°F11.4°C 95% Calm Calm -- 29.89 in1012.2 mb 0.00 in0.0 mm 0.00 in0.0 mm 0.75 in19.1 mm
08:52 PM 54.1°F12.3°C 52.7°F11.5°C 95% Calm Calm -- 29.89 in1012.2 mb 0.00 in0.0 mm 0.00 in0.0 mm 0.75 in19.1 mm
08:57 PM 54.0°F12.2°C 52.5°F11.4°C 95% Calm Calm -- 29.88 in1011.9 mb 0.00 in0.0 mm 0.00 in0.0 mm 0.75 in19.1 mm
09:02 PM 54.0°F12.2°C 52.5°F11.4°C 95% Calm Calm -- 29.89 in1012.2 mb 0.00 in0.0 mm 0.00 in0.0 mm 0.75 in19.1 mm
09:07 PM 53.8°F12.1°C 52.3°F11.3°C 95% Calm Calm 1.1 mph1.8 kmh 29.89 in1012.2 mb 0.00 in0.0 mm 0.00 in0.0 mm 0.75 in19.1 mm
09:12 PM 53.8°F12.1°C 52.3°F11.3°C 95% 0.4 mph NW0.6 kmh NW 3.1 mph5.0 kmh 29.90 in1012.5 mb 0.00 in0.0 mm 0.00 in0.0 mm 0.75 in19.1 mm
09:17 PM 53.6°F12.0°C 52.2°F11.2°C 95% 0.4 mph WNW0.6 kmh WNW 2.0 mph3.2 kmh 29.90 in1012.5 mb 0.00 in0.0 mm 0.00 in0.0 mm 0.75 in19.1 mm
09:22 PM 53.4°F11.9°C 52.0°F11.1°C 95% 0.7 mph WSW1.1 kmh WSW 2.0 mph3.2 kmh 29.90 in1012.5 mb 0.00 in0.0 mm 0.00 in0.0 mm 0.75 in19.1 mm
09:27 PM 53.2°F11.8°C 51.8°F11.0°C 95% 0.2 mph W0.3 kmh W 2.0 mph3.2 kmh 29.91 in1012.9 mb 0.00 in0.0 mm 0.00 in0.0 mm 0.75 in19.1 mm
09:32 PM 53.2°F11.8°C 51.8°F11.0°C 95% Calm Calm -- 29.91 in1012.9 mb 0.00 in0.0 mm 0.00 in0.0 mm 0.75 in19.1 mm
09:37 PM 53.1°F11.7°C 51.6°F10.9°C 95% Calm Calm -- 29.91 in1012.9 mb 0.00 in0.0 mm 0.00 in0.0 mm 0.75 in19.1 mm
09:42 PM 52.9°F11.6°C 51.4°F10.8°C 95% Calm Calm -- 29.91 in1012.9 mb 0.00 in0.0 mm 0.00 in0.0 mm 0.75 in19.1 mm
09:47 PM 52.9°F11.6°C 51.4°F10.8°C 95% Calm Calm -- 29.91 in1012.9 mb 0.00 in0.0 mm 0.00 in0.0 mm 0.75 in19.1 mm
09:52 PM 52.5°F11.4°C 51.1°F10.6°C 95% Calm Calm -- 29.91 in1012.9 mb 0.00 in0.0 mm 0.00 in0.0 mm 0.75 in19.1 mm
09:57 PM 52.3°F11.3°C 50.9°F10.5°C 95% Calm Calm -- 29.91 in1012.9 mb 0.00 in0.0 mm 0.00 in0.0 mm 0.75 in19.1 mm
10:02 PM 52.2°F11.2°C 50.7°F10.4°C 95% Calm Calm -- 29.91 in1012.9 mb 0.00 in0.0 mm 0.00 in0.0 mm 0.75 in19.1 mm
10:07 PM 52.0°F11.1°C 50.5°F10.3°C 95% Calm Calm -- 29.91 in1012.9 mb 0.00 in0.0 mm 0.00 in0.0 mm 0.75 in19.1 mm
10:12 PM 51.8°F11.0°C 50.4°F10.2°C 95% Calm Calm -- 29.92 in1013.2 mb 0.00 in0.0 mm 0.00 in0.0 mm 0.75 in19.1 mm
10:17 PM 51.6°F10.9°C 50.2°F10.1°C 95% Calm Calm -- 29.91 in1012.9 mb 0.00 in0.0 mm 0.00 in0.0 mm 0.75 in19.1 mm
10:22 PM 51.6°F10.9°C 50.2°F10.1°C 95% Calm Calm -- 29.92 in1013.2 mb 0.00 in0.0 mm 0.00 in0.0 mm 0.75 in19.1 mm
10:27 PM 51.4°F10.8°C 50.0°F10.0°C 95% Calm Calm -- 29.92 in1013.2 mb 0.00 in0.0 mm 0.00 in0.0 mm 0.75 in19.1 mm
10:32 PM 51.3°F10.7°C 49.8°F9.9°C 95% Calm Calm -- 29.92 in1013.2 mb 0.00 in0.0 mm 0.00 in0.0 mm 0.75 in19.1 mm
10:37 PM 51.1°F10.6°C 50.0°F10.0°C 96% Calm Calm -- 29.92 in1013.2 mb 0.00 in0.0 mm 0.00 in0.0 mm 0.75 in19.1 mm
10:42 PM 51.1°F10.6°C 50.0°F10.0°C 96% Calm Calm -- 29.92 in1013.2 mb 0.00 in0.0 mm 0.00 in0.0 mm 0.75 in19.1 mm
10:47 PM 51.1°F10.6°C 50.0°F10.0°C 96% Calm Calm -- 29.93 in1013.5 mb 0.00 in0.0 mm 0.00 in0.0 mm 0.75 in19.1 mm
10:52 PM 51.1°F10.6°C 50.0°F10.0°C 96% Calm Calm -- 29.93 in1013.5 mb 0.00 in0.0 mm 0.00 in0.0 mm 0.75 in19.1 mm
10:57 PM 50.7°F10.4°C 49.6°F9.8°C 96% Calm Calm -- 29.93 in1013.5 mb 0.00 in0.0 mm 0.00 in0.0 mm 0.75 in19.1 mm
11:02 PM 50.7°F10.4°C 49.6°F9.8°C 96% Calm Calm -- 29.92 in1013.2 mb 0.00 in0.0 mm 0.00 in0.0 mm 0.75 in19.1 mm
11:07 PM 50.7°F10.4°C 49.6°F9.8°C 96% Calm Calm -- 29.92 in1013.2 mb 0.00 in0.0 mm 0.00 in0.0 mm 0.75 in19.1 mm
11:12 PM 50.7°F10.4°C 49.6°F9.8°C 96% Calm Calm -- 29.91 in1012.9 mb 0.00 in0.0 mm 0.00 in0.0 mm 0.75 in19.1 mm
11:17 PM 50.7°F10.4°C 49.6°F9.8°C 96% Calm Calm -- 29.92 in1013.2 mb 0.00 in0.0 mm 0.00 in0.0 mm 0.75 in19.1 mm
11:22 PM 50.2°F10.1°C 48.7°F9.3°C 95% Calm Calm -- 29.92 in1013.2 mb 0.00 in0.0 mm 0.00 in0.0 mm 0.75 in19.1 mm
11:27 PM 49.8°F9.9°C 48.4°F9.1°C 95% Calm Calm -- 29.92 in1013.2 mb 0.00 in0.0 mm 0.00 in0.0 mm 0.75 in19.1 mm
11:32 PM 50.0°F10.0°C 48.9°F9.4°C 96% Calm Calm -- 29.92 in1013.2 mb 0.00 in0.0 mm 0.00 in0.0 mm 0.75 in19.1 mm
11:37 PM 50.2°F10.1°C 49.1°F9.5°C 96% Calm Calm -- 29.92 in1013.2 mb 0.00 in0.0 mm 0.00 in0.0 mm 0.75 in19.1 mm
11:42 PM 50.4°F10.2°C 49.3°F9.6°C 96% Calm Calm -- 29.92 in1013.2 mb 0.00 in0.0 mm 0.00 in0.0 mm 0.75 in19.1 mm
11:47 PM 50.2°F10.1°C 49.1°F9.5°C 96% Calm Calm -- 29.92 in1013.2 mb 0.00 in0.0 mm 0.00 in0.0 mm 0.75 in19.1 mm
11:52 PM 50.2°F10.1°C 49.1°F9.5°C 96% Calm Calm -- 29.92 in1013.2 mb 0.00 in0.0 mm 0.00 in0.0 mm 0.75 in19.1 mm
11:57 PM 50.2°F10.1°C 49.1°F9.5°C 96% Calm Calm -- 29.92 in1013.2 mb 0.00 in0.0 mm 0.00 in0.0 mm 0.75 in19.1 mm